Time;durP1;ratioP1;P1;durP2;ratioP2;P2;SDS_P1;SDS_P2;PMS_P1;PMS_P2;Temp;Humidity;BMP_temperature;BMP_pressure;BME280_temperature;BME280_humidity;BME280_pressure;Samples;Min_cycle;Max_cycle;Signal;HPM_P1;HPM_P2
2022/04/15 00:02:02;;;;;;;21.90;12.87;;;9.90;99.90;;;;;;5072828;28;20207;-74
2022/04/15 00:04:32;;;;;;;20.33;12.60;;;9.90;99.90;;;;;;5073802;28;20209;-74
2022/04/15 00:06:59;;;;;;;20.00;12.33;;;9.80;99.90;;;;;;5061073;28;20260;-74
2022/04/15 00:09:26;;;;;;;22.57;12.33;;;9.90;99.90;;;;;;5065356;28;20202;-73
2022/04/15 00:11:56;;;;;;;21.37;12.23;;;9.90;99.90;;;;;;5052790;28;20195;-74
2022/04/15 00:14:23;;;;;;;21.33;12.97;;;10.00;99.90;;;;;;5063652;28;20222;-74
2022/04/15 00:16:50;;;;;;;22.93;14.23;;;9.90;99.90;;;;;;5073062;28;20672;-73
2022/04/15 00:19:17;;;;;;;23.23;13.40;;;9.90;99.90;;;;;;5062053;28;20195;-74
2022/04/15 00:21:44;;;;;;;22.33;12.90;;;10.00;99.90;;;;;;5055079;28;20199;-74
2022/04/15 00:24:11;;;;;;;22.47;12.47;;;10.00;99.90;;;;;;5073229;28;20626;-74
2022/04/15 00:26:38;;;;;;;22.73;14.57;;;10.00;99.90;;;;;;5066610;28;20202;-74
2022/04/15 00:29:06;;;;;;;23.13;14.77;;;10.00;99.90;;;;;;5053108;28;20210;-74
2022/04/15 00:31:34;;;;;;;21.93;14.37;;;10.00;99.90;;;;;;5068430;28;20571;-73
2022/04/15 00:34:02;;;;;;;23.30;14.37;;;9.80;99.90;;;;;;5071980;28;20218;-73
2022/04/15 00:36:29;;;;;;;23.87;14.00;;;9.80;99.90;;;;;;5057370;28;20572;-73
2022/04/15 00:38:55;;;;;;;22.57;14.43;;;9.90;99.90;;;;;;5059925;28;20213;-74
2022/04/15 00:41:22;;;;;;;26.47;15.10;;;9.80;99.90;;;;;;5071799;28;20240;-74
2022/04/15 00:43:53;;;;;;;24.67;14.47;;;9.90;99.90;;;;;;5056474;28;20195;-73
2022/04/15 00:46:21;;;;;;;21.63;13.67;;;9.80;99.90;;;;;;5066795;28;20656;-74
2022/04/15 00:48:48;;;;;;;24.27;14.40;;;9.90;99.90;;;;;;5069598;28;20213;-74
2022/04/15 00:51:15;;;;;;;23.43;14.77;;;9.80;99.90;;;;;;5067259;28;20285;-74
2022/04/15 00:53:45;;;;;;;25.20;14.63;;;9.70;99.90;;;;;;5061109;28;20228;-73
2022/04/15 00:56:13;;;;;;;23.53;14.30;;;9.80;99.90;;;;;;5068551;28;20199;-74
2022/04/15 00:58:41;;;;;;;22.17;13.57;;;9.80;99.90;;;;;;5072092;28;20213;-74
2022/04/15 01:01:09;;;;;;;21.87;13.20;;;9.90;99.90;;;;;;5059343;28;20211;-75
2022/04/15 01:03:38;;;;;;;21.77;13.33;;;9.90;99.90;;;;;;5072628;28;20210;-74
2022/04/15 01:06:07;;;;;;;22.77;13.60;;;9.80;99.90;;;;;;5071263;28;20206;-74
2022/04/15 01:08:39;;;;;;;23.80;14.43;;;9.90;99.90;;;;;;5066559;28;20271;-74
2022/04/15 01:11:08;;;;;;;29.50;16.10;;;9.70;99.90;;;;;;5062123;28;20646;-74
2022/04/15 01:13:38;;;;;;;29.90;19.13;;;9.70;99.90;;;;;;5052729;28;20226;-74
2022/04/15 01:16:07;;;;;;;31.03;19.10;;;9.60;99.90;;;;;;5052440;28;20653;-74
2022/04/15 01:18:34;;;;;;;30.53;20.17;;;9.60;99.90;;;;;;5052815;28;20654;-74
2022/04/15 01:21:04;;;;;;;32.23;19.20;;;9.50;99.90;;;;;;5050760;28;20209;-74
2022/04/15 01:23:32;;;;;;;27.50;18.07;;;9.50;99.90;;;;;;5060289;28;20202;-74
2022/04/15 01:25:59;;;;;;;28.93;18.53;;;9.40;99.90;;;;;;5069737;28;20205;-74
2022/04/15 01:28:26;;;;;;;28.03;17.03;;;9.50;99.90;;;;;;5058854;28;20221;-74
2022/04/15 01:30:53;;;;;;;26.93;17.27;;;9.40;99.90;;;;;;5051835;28;20203;-74
2022/04/15 01:33:19;;;;;;;29.70;18.13;;;9.40;99.90;;;;;;5066388;28;20257;-74
2022/04/15 01:35:46;;;;;;;25.37;17.20;;;9.50;99.90;;;;;;5070667;28;20198;-73
2022/04/15 01:38:14;;;;;;;27.17;18.40;;;9.40;99.90;;;;;;5070734;28;20206;-74
2022/04/15 01:40:43;;;;;;;30.90;17.03;;;9.40;99.90;;;;;;5071086;28;20197;-73
2022/04/15 01:43:10;;;;;;;27.13;17.70;;;9.40;99.90;;;;;;5071145;28;20202;-73
2022/04/15 01:45:37;;;;;;;27.17;17.73;;;9.50;99.90;;;;;;5072078;28;20561;-74
2022/04/15 01:48:04;;;;;;;28.67;17.60;;;9.50;99.90;;;;;;5070972;28;20205;-74
2022/04/15 01:50:31;;;;;;;28.03;17.67;;;9.40;99.90;;;;;;5071353;28;20656;-74
2022/04/15 01:52:58;;;;;;;25.97;17.60;;;9.40;99.90;;;;;;5070450;28;20206;-74
2022/04/15 01:55:25;;;;;;;27.73;17.50;;;9.30;99.90;;;;;;5070729;28;20194;-74
2022/04/15 01:57:53;;;;;;;30.10;17.37;;;9.20;99.90;;;;;;5071148;28;20672;-74
2022/04/15 02:00:20;;;;;;;26.47;17.20;;;9.30;99.90;;;;;;5070610;28;20206;-74
2022/04/15 02:02:47;;;;;;;23.67;15.10;;;9.30;99.90;;;;;;5070836;28;20560;-73
2022/04/15 02:05:14;;;;;;;22.27;14.10;;;9.30;99.90;;;;;;5071825;28;20206;-74
2022/04/15 02:07:41;;;;;;;20.47;14.00;;;9.30;99.90;;;;;;5070851;28;20201;-74
2022/04/15 02:10:09;;;;;;;19.80;12.67;;;9.20;99.90;;;;;;5070795;28;20204;-74
2022/04/15 02:12:36;;;;;;;19.63;12.03;;;9.30;99.90;;;;;;5070563;28;20209;-74
2022/04/15 02:15:05;;;;;;;19.03;12.23;;;9.30;99.90;;;;;;5071762;28;20248;-74
2022/04/15 02:17:32;;;;;;;18.93;12.13;;;9.30;99.90;;;;;;5071416;28;20633;-74
2022/04/15 02:19:59;;;;;;;20.57;12.03;;;9.30;99.90;;;;;;5070518;28;20566;-74
2022/04/15 02:22:25;;;;;;;18.10;11.67;;;9.40;99.90;;;;;;5073678;28;20566;-74
2022/04/15 02:24:52;;;;;;;19.30;12.27;;;9.50;99.90;;;;;;5074996;28;20194;-74
2022/04/15 02:27:19;;;;;;;23.50;13.13;;;9.40;99.90;;;;;;5073472;28;20221;-74
2022/04/15 02:29:46;;;;;;;20.27;11.93;;;9.20;99.90;;;;;;5074407;28;20198;-74
2022/04/15 02:32:14;;;;;;;18.50;12.33;;;9.40;99.90;;;;;;5071156;28;20203;-74
2022/04/15 02:34:41;;;;;;;19.37;12.53;;;9.40;99.90;;;;;;5062270;28;20704;-72
2022/04/15 02:37:08;;;;;;;19.07;12.60;;;9.30;99.90;;;;;;5055816;28;20198;-71
2022/04/15 02:39:35;;;;;;;19.70;12.43;;;9.30;99.90;;;;;;5055922;28;20206;-72
2022/04/15 02:42:02;;;;;;;22.87;12.33;;;9.40;99.90;;;;;;5057372;28;20544;-72
2022/04/15 02:44:30;;;;;;;21.37;12.60;;;9.30;99.90;;;;;;5074246;28;20202;-71
2022/04/15 02:46:58;;;;;;;23.03;12.53;;;9.30;99.90;;;;;;5058546;28;20237;-72
2022/04/15 02:49:27;;;;;;;20.80;12.73;;;9.30;99.90;;;;;;5065465;28;20279;-72
2022/04/15 02:51:54;;;;;;;15.67;10.50;;;9.20;99.90;;;;;;5054211;28;20537;-71
2022/04/15 02:54:21;;;;;;;17.37;10.07;;;9.20;99.90;;;;;;5067815;28;20221;-71
2022/04/15 02:56:48;;;;;;;16.33;10.47;;;9.20;99.90;;;;;;5056019;28;20206;-71
2022/04/15 02:59:16;;;;;;;19.73;11.37;;;9.30;99.90;;;;;;5071468;28;20194;-71
2022/04/15 03:01:44;;;;;;;12.80;7.77;;;9.30;99.90;;;;;;5055256;28;20211;-71
2022/04/15 03:04:12;;;;;;;12.07;7.07;;;9.20;99.90;;;;;;5061867;28;20199;-72
2022/04/15 03:06:40;;;;;;;10.10;6.37;;;9.30;99.90;;;;;;5053625;28;20261;-71
2022/04/15 03:09:07;;;;;;;11.37;6.57;;;9.20;99.90;;;;;;5056973;28;20512;-71
2022/04/15 03:11:37;;;;;;;7.60;5.83;;;9.20;50.00;;;;;;5053501;28;20203;-72
2022/04/15 03:14:04;;;;;;;8.13;5.20;;;9.20;1.00;;;;;;5054905;28;20215;-71
2022/04/15 03:16:31;;;;;;;6.70;5.20;;;9.10;1.00;;;;;;5054520;28;20191;-71
2022/04/15 03:18:58;;;;;;;9.70;5.90;;;9.00;1.00;;;;;;5061219;28;20206;-71
2022/04/15 03:21:25;;;;;;;9.00;4.67;;;9.00;1.00;;;;;;5060132;28;20203;-71
2022/04/15 03:23:53;;;;;;;8.43;5.23;;;9.00;1.00;;;;;;5070105;28;20199;-71
2022/04/15 03:26:21;;;;;;;9.43;5.40;;;9.10;1.00;;;;;;5060261;28;20195;-71
2022/04/15 03:28:48;;;;;;;7.53;5.50;;;9.10;1.00;;;;;;5054100;28;20248;-71
2022/04/15 03:31:15;;;;;;;8.23;5.57;;;9.10;1.00;;;;;;5056343;28;20294;-71
2022/04/15 03:33:42;;;;;;;6.60;4.93;;;9.10;1.00;;;;;;5072741;28;20230;-71
2022/04/15 03:36:08;;;;;;;8.40;5.40;;;9.00;1.00;;;;;;5068501;28;20794;-71
2022/04/15 03:38:35;;;;;;;7.97;5.87;;;8.90;1.00;;;;;;5063429;28;20280;-71
2022/04/15 03:41:04;;;;;;;11.07;5.83;;;8.90;1.00;;;;;;5052495;28;20207;-71
2022/04/15 03:43:32;;;;;;;12.17;5.43;;;8.90;1.00;;;;;;5055900;28;20206;-71
2022/04/15 03:45:59;;;;;;;8.70;5.53;;;9.00;1.00;;;;;;5054304;28;20206;-71
2022/04/15 03:48:26;;;;;;;9.23;5.60;;;8.90;1.00;;;;;;5055836;28;20199;-71
2022/04/15 03:50:53;;;;;;;8.10;5.57;;;8.90;1.00;;;;;;5071526;28;20198;-71
2022/04/15 03:53:20;;;;;;;7.43;5.20;;;8.90;1.00;;;;;;5062829;28;20572;-71
2022/04/15 03:55:47;;;;;;;8.20;5.60;;;8.90;1.00;;;;;;5065233;28;20210;-72
2022/04/15 03:58:16;;;;;;;9.23;5.70;;;8.90;1.00;;;;;;5065717;28;20197;-71
2022/04/15 04:00:43;;;;;;;12.27;6.57;;;8.80;1.00;;;;;;5067473;28;20206;-71
2022/04/15 04:03:11;;;;;;;12.37;6.33;;;8.90;16.60;;;;;;5071567;28;20683;-72
2022/04/15 04:05:38;;;;;;;11.33;6.57;;;8.80;39.60;;;;;;5058483;28;20226;-71
2022/04/15 04:08:05;;;;;;;11.23;7.50;;;8.80;61.00;;;;;;5070663;28;20675;-71
2022/04/15 04:10:33;;;;;;;13.03;8.57;;;8.80;82.90;;;;;;5060335;28;20560;-71
2022/04/15 04:13:00;;;;;;;12.80;8.20;;;8.80;78.60;;;;;;5055893;28;20579;-71
2022/04/15 04:15:29;;;;;;;10.83;7.50;;;9.00;98.20;;;;;;5056877;28;20305;-71
2022/04/15 04:17:56;;;;;;;14.07;7.93;;;9.10;44.50;;;;;;5062952;28;20202;-71
2022/04/15 04:20:24;;;;;;;12.70;8.10;;;9.00;1.00;;;;;;5072438;28;20727;-71
2022/04/15 04:22:50;;;;;;;15.87;9.60;;;8.90;1.00;;;;;;5063449;28;20721;-74
2022/04/15 04:25:17;;;;;;;16.57;10.27;;;8.90;1.00;;;;;;5058706;28;20290;-74
2022/04/15 04:27:45;;;;;;;17.27;10.83;;;8.80;1.00;;;;;;5068091;28;20213;-71
2022/04/15 04:30:13;;;;;;;16.97;10.83;;;8.80;1.00;;;;;;5067792;28;20725;-71
2022/04/15 04:32:42;;;;;;;17.23;10.80;;;8.80;1.00;;;;;;5072757;28;20206;-74
2022/04/15 04:35:10;;;;;;;18.77;11.30;;;8.70;1.00;;;;;;5058901;28;20222;-74
2022/04/15 04:37:36;;;;;;;16.33;11.17;;;8.70;1.00;;;;;;5053918;28;20213;-74
2022/04/15 04:40:04;;;;;;;16.90;10.47;;;8.90;1.00;;;;;;5051548;28;20199;-74
2022/04/15 04:42:31;;;;;;;16.63;9.97;;;8.80;1.00;;;;;;5052194;28;20206;-74
2022/04/15 04:44:58;;;;;;;14.83;9.70;;;8.80;1.00;;;;;;5065690;28;20193;-71
2022/04/15 04:47:26;;;;;;;15.27;9.90;;;8.70;1.00;;;;;;5052307;28;20560;-71
2022/04/15 04:49:55;;;;;;;12.87;7.63;;;8.70;1.00;;;;;;5054941;28;20207;-71
2022/04/15 04:52:24;;;;;;;14.00;8.53;;;8.70;1.00;;;;;;5056509;28;20198;-72
2022/04/15 04:54:51;;;;;;;14.63;8.43;;;8.60;1.00;;;;;;5067631;28;20246;-72
2022/04/15 04:57:19;;;;;;;12.93;8.07;;;8.70;1.00;;;;;;5056187;28;20190;-72
2022/04/15 04:59:45;;;;;;;16.47;7.30;;;8.70;1.00;;;;;;5064410;28;20191;-72
2022/04/15 05:02:12;;;;;;;9.07;6.63;;;8.70;1.00;;;;;;5068565;28;20195;-72
2022/04/15 05:04:40;;;;;;;9.83;5.77;;;8.60;1.00;;;;;;5061898;28;20205;-72
2022/04/15 05:07:08;;;;;;;9.07;6.13;;;8.70;1.00;;;;;;5051703;28;20203;-72
2022/04/15 05:09:35;;;;;;;9.77;6.23;;;8.70;1.00;;;;;;5061739;28;20199;-72
2022/04/15 05:12:02;;;;;;;7.57;6.03;;;8.60;16.20;;;;;;5055117;28;20199;-73
2022/04/15 05:14:29;;;;;;;8.73;6.37;;;8.60;42.80;;;;;;5061605;28;20225;-73
2022/04/15 05:16:56;;;;;;;9.20;6.67;;;8.60;88.40;;;;;;5066177;28;20209;-73
2022/04/15 05:19:23;;;;;;;8.90;6.10;;;8.70;99.90;;;;;;5064772;28;20213;-73
2022/04/15 05:21:50;;;;;;;9.33;6.23;;;8.70;99.90;;;;;;5070189;28;20597;-72
2022/04/15 05:24:18;;;;;;;7.93;6.23;;;8.60;99.90;;;;;;5059532;28;20646;-73
2022/04/15 05:26:45;;;;;;;9.57;6.57;;;8.60;99.90;;;;;;5060140;28;20203;-73
2022/04/15 05:29:12;;;;;;;9.50;6.50;;;8.60;99.90;;;;;;5068322;28;20209;-73
2022/04/15 05:31:38;;;;;;;9.57;6.23;;;8.70;99.90;;;;;;5063466;28;20650;-73
2022/04/15 05:34:05;;;;;;;10.20;6.77;;;8.70;99.90;;;;;;5066039;28;20554;-73
2022/04/15 05:36:32;;;;;;;10.13;6.83;;;8.70;99.90;;;;;;5067143;28;20206;-73
2022/04/15 05:38:59;;;;;;;10.47;7.07;;;8.70;99.90;;;;;;5068507;28;20285;-73
2022/04/15 05:41:28;;;;;;;9.00;6.60;;;8.60;99.90;;;;;;5064636;28;20250;-73
2022/04/15 05:43:55;;;;;;;11.37;6.03;;;8.70;99.90;;;;;;5065015;28;20623;-73
2022/04/15 05:46:21;;;;;;;11.13;7.23;;;8.70;99.90;;;;;;5068420;28;20312;-72
2022/04/15 05:48:48;;;;;;;10.50;7.33;;;8.70;99.90;;;;;;5061625;28;20206;-72
2022/04/15 05:51:15;;;;;;;11.57;7.57;;;8.70;99.90;;;;;;5067256;28;20562;-73
2022/04/15 05:53:42;;;;;;;12.23;7.77;;;8.70;99.90;;;;;;5067641;28;20198;-72
2022/04/15 05:56:09;;;;;;;8.40;6.23;;;8.70;99.90;;;;;;5064907;28;20403;-72
2022/04/15 05:58:37;;;;;;;10.83;6.77;;;8.70;99.90;;;;;;5066265;28;20202;-76
2022/04/15 06:01:06;;;;;;;10.60;6.50;;;8.70;99.90;;;;;;5069736;28;20199;-76
2022/04/15 06:03:33;;;;;;;11.93;6.67;;;8.70;99.90;;;;;;5068819;28;20210;-75
2022/04/15 06:06:01;;;;;;;12.77;6.97;;;8.70;99.90;;;;;;5069650;28;20649;-74
2022/04/15 06:08:28;;;;;;;10.33;5.97;;;8.70;99.90;;;;;;5066457;28;20210;-74
2022/04/15 06:10:55;;;;;;;8.60;6.40;;;8.70;99.90;;;;;;5069436;28;20566;-74
2022/04/15 06:13:22;;;;;;;9.20;6.50;;;8.70;99.90;;;;;;5066631;28;20215;-75
2022/04/15 06:15:55;;;;;;;11.70;6.63;;;8.70;99.90;;;;;;5065068;28;20218;-74
2022/04/15 06:18:23;;;;;;;9.30;6.17;;;8.80;99.90;;;;;;5067899;28;20213;-74
2022/04/15 06:20:51;;;;;;;9.97;5.83;;;8.70;99.90;;;;;;5070756;28;20216;-74
2022/04/15 06:23:19;;;;;;;10.27;6.83;;;8.60;99.90;;;;;;5069068;28;20194;-74
2022/04/15 06:25:46;;;;;;;12.63;7.20;;;8.50;99.90;;;;;;5070807;28;20649;-74
2022/04/15 06:28:14;;;;;;;12.77;7.03;;;8.40;99.90;;;;;;5064121;28;20208;-75
2022/04/15 06:30:41;;;;;;;11.13;6.97;;;8.50;99.90;;;;;;5062346;28;20202;-74
2022/04/15 06:33:09;;;;;;;15.00;7.83;;;8.50;99.90;;;;;;5071728;28;20210;-74
2022/04/15 06:35:36;;;;;;;14.53;8.47;;;8.50;99.90;;;;;;5067736;28;20272;-74
2022/04/15 06:38:03;;;;;;;15.17;8.93;;;8.30;99.90;;;;;;5070556;28;20202;-71
2022/04/15 06:40:30;;;;;;;17.07;9.83;;;8.50;99.90;;;;;;5064555;28;20202;-77
2022/04/15 06:42:57;;;;;;;16.63;10.03;;;8.70;99.90;;;;;;5066225;28;20206;-76
2022/04/15 06:45:24;;;;;;;16.87;10.00;;;8.70;99.90;;;;;;5070028;28;20208;-75
2022/04/15 06:47:51;;;;;;;17.73;10.67;;;8.70;99.90;;;;;;5068214;28;20887;-75
2022/04/15 06:50:20;;;;;;;16.80;10.50;;;8.90;99.90;;;;;;5070197;28;20203;-75
2022/04/15 06:52:47;;;;;;;18.27;10.37;;;8.90;99.90;;;;;;5067806;28;20209;-75
2022/04/15 06:55:13;;;;;;;20.53;10.80;;;8.90;99.90;;;;;;5068103;28;20225;-76
2022/04/15 06:57:40;;;;;;;17.67;11.83;;;8.90;99.90;;;;;;5072182;28;20210;-75
2022/04/15 07:00:09;;;;;;;21.83;11.77;;;9.00;99.90;;;;;;5067271;28;20205;-75
2022/04/15 07:02:38;;;;;;;20.80;12.13;;;9.10;99.90;;;;;;5064011;28;20621;-76
2022/04/15 07:05:06;;;;;;;20.70;10.80;;;9.20;99.90;;;;;;5071076;28;20205;-75
2022/04/15 07:07:35;;;;;;;17.77;11.00;;;9.20;99.90;;;;;;5058728;28;20295;-76
2022/04/15 07:10:02;;;;;;;15.83;9.37;;;9.40;53.70;;;;;;5067291;28;20290;-76
2022/04/15 07:12:28;;;;;;;18.53;10.93;;;9.20;1.00;;;;;;5067186;28;20209;-76
2022/04/15 07:14:57;;;;;;;13.53;8.73;;;9.40;1.00;;;;;;5068970;28;20585;-76
2022/04/15 07:17:24;;;;;;;13.23;9.17;;;9.50;1.00;;;;;;5064639;28;20653;-76
2022/04/15 07:19:51;;;;;;;13.60;9.20;;;9.60;1.00;;;;;;5066314;28;20631;-76
2022/04/15 07:22:18;;;;;;;12.67;7.77;;;9.80;1.00;;;;;;5066054;28;20198;-76
2022/04/15 07:24:47;;;;;;;10.93;7.13;;;9.90;1.00;;;;;;5068123;28;20195;-76
2022/04/15 07:27:15;;;;;;;12.47;7.70;;;10.10;1.00;;;;;;5063927;28;20721;-76
2022/04/15 07:29:42;;;;;;;11.33;7.83;;;10.20;1.00;;;;;;5068122;28;20201;-76
2022/04/15 07:32:09;;;;;;;12.30;7.73;;;10.40;1.00;;;;;;5058787;28;20214;-76
2022/04/15 07:34:36;;;;;;;11.73;7.90;;;10.40;1.00;;;;;;5065696;28;20206;-76
2022/04/15 07:37:04;;;;;;;10.67;7.00;;;10.30;99.90;;;;;;5070860;28;20213;-76
2022/04/15 07:39:31;;;;;;;10.23;6.80;;;10.30;99.90;;;;;;5065528;28;20588;-76
2022/04/15 07:41:59;;;;;;;11.13;6.90;;;10.50;99.90;;;;;;5068500;28;20210;-76
2022/04/15 07:44:26;;;;;;;11.57;6.37;;;10.70;66.70;;;;;;5066508;28;20352;-76
2022/04/15 07:46:53;;;;;;;7.73;5.33;;;10.90;1.00;;;;;;5068032;28;20234;-76
2022/04/15 07:49:20;;;;;;;8.90;6.03;;;11.10;1.00;;;;;;5064188;28;20287;-76
2022/04/15 07:51:47;;;;;;;8.47;5.57;;;11.10;1.00;;;;;;5066681;28;20218;-76
2022/04/15 07:54:14;;;;;;;8.63;5.23;;;11.20;1.00;;;;;;5065797;28;20231;-76
2022/04/15 07:56:41;;;;;;;8.33;5.27;;;11.50;99.90;;;;;;5062255;28;20254;-76
2022/04/15 07:59:09;;;;;;;8.23;5.40;;;11.70;99.90;;;;;;5064689;28;20292;-76
2022/04/15 08:01:38;;;;;;;6.87;5.03;;;11.90;1.00;;;;;;5061848;28;20213;-76
2022/04/15 08:04:06;;;;;;;8.57;5.07;;;11.70;1.00;;;;;;5063652;28;20202;-76
2022/04/15 08:06:33;;;;;;;8.13;4.60;;;11.80;47.20;;;;;;5065611;28;20269;-75
2022/04/15 08:09:00;;;;;;;6.73;4.50;;;11.60;1.00;;;;;;5069372;28;20199;-75
2022/04/15 08:11:28;;;;;;;7.13;5.43;;;11.80;1.00;;;;;;5064226;28;20210;-75
2022/04/15 08:13:56;;;;;;;6.00;4.80;;;11.70;1.00;;;;;;5063315;28;20209;-75
2022/04/15 08:16:25;;;;;;;5.80;4.40;;;11.60;1.00;;;;;;5066712;28;20791;-75
2022/04/15 08:18:52;;;;;;;5.20;4.47;;;11.20;1.00;;;;;;5066355;28;20194;-75
2022/04/15 08:21:19;;;;;;;9.20;5.30;;;10.90;1.00;;;;;;5068414;28;20234;-76
2022/04/15 08:23:47;;;;;;;6.83;4.83;;;11.00;1.00;;;;;;5070963;28;20209;-75
2022/04/15 08:26:14;;;;;;;9.50;5.80;;;10.90;99.90;;;;;;5064778;28;20210;-75
2022/04/15 08:28:41;;;;;;;8.60;6.00;;;10.70;1.00;;;;;;5063486;28;20701;-75
2022/04/15 08:31:08;;;;;;;7.20;5.40;;;10.80;1.00;;;;;;5066497;28;20589;-75
2022/04/15 08:33:37;;;;;;;7.73;5.90;;;10.70;1.00;;;;;;5067197;28;20211;-75
2022/04/15 08:36:04;;;;;;;9.87;6.40;;;10.80;1.00;;;;;;5064863;28;20219;-75
2022/04/15 08:38:32;;;;;;;15.63;8.37;;;11.10;1.00;;;;;;5061712;28;20668;-75
2022/04/15 08:40:59;;;;;;;20.70;12.00;;;11.00;99.90;;;;;;5059254;28;20226;-75
2022/04/15 08:43:29;;;;;;;13.87;7.80;;;11.10;1.00;;;;;;5068720;28;20220;-76
2022/04/15 08:45:56;;;;;;;27.10;14.77;;;11.30;99.90;;;;;;5059606;28;20566;-76
2022/04/15 08:48:25;;;;;;;13.13;7.73;;;11.20;99.90;;;;;;5068218;28;20221;-75
2022/04/15 08:50:54;;;;;;;25.70;13.27;;;11.20;1.00;;;;;;5063900;28;20243;-78
2022/04/15 08:53:22;;;;;;;8.30;6.47;;;11.40;99.90;;;;;;5060841;28;20317;-76
2022/04/15 08:55:50;;;;;;;10.20;6.90;;;11.40;1.00;;;;;;5063048;28;20227;-76
2022/04/15 08:58:17;;;;;;;12.20;7.30;;;11.60;1.00;;;;;;5067036;28;20198;-76
2022/04/15 09:00:44;;;;;;;15.20;7.93;;;11.60;1.00;;;;;;5059109;28;20209;-76
2022/04/15 09:03:11;;;;;;;9.17;6.03;;;11.60;99.90;;;;;;5058220;28;20591;-76
2022/04/15 09:05:38;;;;;;;12.03;7.33;;;11.70;15.90;;;;;;5065078;28;20202;-76
2022/04/15 09:08:08;;;;;;;14.30;7.43;;;11.50;99.90;;;;;;5058799;28;20209;-75
2022/04/15 09:10:35;;;;;;;11.73;8.37;;;11.60;99.90;;;;;;5062570;28;20203;-76
2022/04/15 09:13:04;;;;;;;11.57;7.70;;;11.70;64.70;;;;;;5055298;28;20209;-75
2022/04/15 09:15:31;;;;;;;9.10;6.63;;;11.20;99.90;;;;;;5062626;28;20222;-75
2022/04/15 09:18:00;;;;;;;11.57;7.50;;;11.30;1.00;;;;;;5059069;28;20217;-76
2022/04/15 09:20:32;;;;;;;12.80;8.70;;;11.60;1.00;;;;;;5060831;28;20625;-73
2022/04/15 09:23:10;;;;;;;11.73;8.20;;;11.50;1.00;;;;;;5057887;28;20202;-75
2022/04/15 09:25:39;;;;;;;11.83;7.70;;;11.60;99.90;;;;;;5061316;28;20203;-74
2022/04/15 09:28:07;;;;;;;9.60;8.10;;;11.40;99.90;;;;;;5062822;28;20217;-74
2022/04/15 09:30:35;;;;;;;11.90;9.10;;;11.30;1.00;;;;;;5057932;28;20260;-74
2022/04/15 09:33:03;;;;;;;11.93;9.30;;;11.40;1.00;;;;;;5058629;28;20217;-74
2022/04/15 09:35:30;;;;;;;12.27;8.80;;;11.40;1.00;;;;;;5058275;28;20227;-74
2022/04/15 09:38:03;;;;;;;11.87;9.00;;;11.60;1.00;;;;;;5067267;28;20206;-75
2022/04/15 09:40:35;;;;;;;13.50;9.53;;;11.50;1.00;;;;;;5064128;28;20206;-74
2022/04/15 09:43:04;;;;;;;14.00;9.47;;;11.20;1.00;;;;;;5062157;28;20199;-74
2022/04/15 09:45:34;;;;;;;12.53;9.07;;;11.40;99.90;;;;;;5062696;28;20199;-74
2022/04/15 09:48:02;;;;;;;12.57;9.27;;;11.60;1.00;;;;;;5062928;28;20672;-74
2022/04/15 09:50:31;;;;;;;13.30;9.40;;;11.70;99.90;;;;;;5059895;28;20229;-75
2022/04/15 09:53:08;;;;;;;13.40;9.33;;;11.60;1.00;;;;;;5060191;28;20212;-75
2022/04/15 09:55:39;;;;;;;11.80;9.13;;;11.50;1.00;;;;;;5057071;28;20221;-75
2022/04/15 09:58:10;;;;;;;13.53;9.50;;;11.80;1.00;;;;;;5060407;28;20202;-74
2022/04/15 10:00:38;;;;;;;13.73;9.20;;;11.80;1.00;;;;;;5061868;28;20206;-75
2022/04/15 10:03:07;;;;;;;13.10;9.23;;;12.10;99.90;;;;;;5061236;28;20602;-75
2022/04/15 10:05:37;;;;;;;12.23;9.37;;;12.30;99.90;;;;;;5060125;28;20205;-75
2022/04/15 10:08:04;;;;;;;13.30;9.00;;;12.30;1.00;;;;;;5059944;28;20220;-74
2022/04/15 10:10:32;;;;;;;14.27;9.80;;;12.40;1.00;;;;;;5062098;28;20203;-74
2022/04/15 10:13:03;;;;;;;13.63;8.53;;;12.60;1.00;;;;;;5064796;28;20198;-75
2022/04/15 10:15:31;;;;;;;12.83;8.70;;;12.70;1.00;;;;;;5063750;28;20283;-74
2022/04/15 10:18:00;;;;;;;12.77;8.40;;;12.50;99.90;;;;;;5065477;28;20207;-74
2022/04/15 10:20:28;;;;;;;11.63;7.93;;;12.50;99.90;;;;;;5063831;28;20378;-74
2022/04/15 10:22:57;;;;;;;10.77;7.97;;;12.80;99.90;;;;;;5059428;28;20214;-74
2022/04/15 10:25:24;;;;;;;11.70;7.90;;;12.90;1.00;;;;;;5057659;28;20203;-74
2022/04/15 10:27:51;;;;;;;9.83;7.30;;;12.90;1.00;;;;;;5058026;28;20198;-74
2022/04/15 10:30:21;;;;;;;11.73;7.20;;;12.70;99.90;;;;;;5058085;28;20261;-73
2022/04/15 10:32:49;;;;;;;11.67;7.90;;;12.50;1.00;;;;;;5061817;28;20213;-73
2022/04/15 10:35:24;;;;;;;13.90;8.67;;;12.60;1.00;;;;;;5060926;28;20229;-74
2022/04/15 10:38:00;;;;;;;12.87;8.63;;;12.80;99.90;;;;;;5066308;28;20233;-74
2022/04/15 10:40:30;;;;;;;12.17;8.87;;;12.90;1.00;;;;;;5063460;28;20452;-74
2022/04/15 10:43:04;;;;;;;15.20;9.43;;;12.80;1.00;;;;;;5066262;28;20340;-74
2022/04/15 10:45:38;;;;;;;12.10;8.83;;;12.90;99.90;;;;;;5068646;28;20236;-74
2022/04/15 10:48:06;;;;;;;13.80;9.00;;;12.90;1.00;;;;;;5063609;28;20221;-74
2022/04/15 10:50:35;;;;;;;12.20;8.27;;;13.10;1.00;;;;;;5062749;28;20676;-74
2022/04/15 10:53:29;;;;;;;9.37;6.93;;;13.30;99.90;;;;;;5067050;28;20260;-74
2022/04/15 10:56:07;;;;;;;11.50;7.93;;;13.50;1.00;;;;;;5057590;28;20233;-74
2022/04/15 11:01:35;;;;;;;12.43;8.23;;;13.50;99.90;;;;;;5061130;28;20633;-74
2022/04/15 11:04:05;;;;;;;14.27;8.13;;;13.70;1.00;;;;;;5065543;28;20194;-74
2022/04/15 11:06:32;;;;;;;15.30;8.40;;;14.00;1.00;;;;;;5059288;28;20199;-74
2022/04/15 11:09:14;;;;;;;13.00;8.23;;;14.10;1.00;;;;;;5062131;28;20214;-74
2022/04/15 11:11:42;;;;;;;13.40;8.23;;;14.00;74.60;;;;;;5064307;28;20214;-73
2022/04/15 11:14:13;;;;;;;12.30;8.27;;;13.80;99.90;;;;;;5067369;28;20202;-73
2022/04/15 11:16:50;;;;;;;9.17;6.43;;;14.10;99.90;;;;;;5065896;28;20225;-74
2022/04/15 11:19:19;;;;;;;10.43;6.83;;;14.00;1.00;;;;;;5063229;28;20201;-74
2022/04/15 11:21:50;;;;;;;10.50;6.03;;;14.00;99.90;;;;;;5070581;28;20208;-74
2022/04/15 11:24:22;;;;;;;9.90;6.53;;;14.00;1.00;;;;;;5062502;28;20206;-74
2022/04/15 11:26:49;;;;;;;8.13;5.97;;;14.30;99.90;;;;;;5068065;28;20254;-73
2022/04/15 11:29:16;;;;;;;7.57;6.37;;;14.10;15.90;;;;;;5066324;28;20198;-73
2022/04/15 11:31:46;;;;;;;10.70;6.83;;;13.40;1.00;;;;;;5062316;28;20213;-73
2022/04/15 11:34:17;;;;;;;10.97;6.67;;;13.90;1.00;;;;;;5067805;28;20203;-73
2022/04/15 11:36:45;;;;;;;11.27;6.63;;;13.80;1.00;;;;;;5068193;28;20222;-73
2022/04/15 11:39:13;;;;;;;10.73;7.47;;;14.50;1.00;;;;;;5064710;28;20455;-73
2022/04/15 11:41:45;;;;;;;12.13;7.20;;;14.40;99.90;;;;;;5063661;28;20525;-73
2022/04/15 11:44:13;;;;;;;8.90;6.93;;;14.30;99.90;;;;;;5065439;28;20198;-73
2022/04/15 11:46:42;;;;;;;11.27;7.73;;;14.40;99.90;;;;;;5066331;28;20198;-73
2022/04/15 11:49:21;;;;;;;13.40;7.87;;;14.80;99.90;;;;;;5061879;28;20210;-73
2022/04/15 11:51:49;;;;;;;13.23;8.03;;;14.20;56.80;;;;;;5061273;28;20206;-74
2022/04/15 11:54:16;;;;;;;13.73;7.43;;;13.70;99.90;;;;;;5063218;28;20199;-73
2022/04/15 11:56:44;;;;;;;9.37;7.03;;;13.80;1.00;;;;;;5066019;28;20573;-73
2022/04/15 11:59:14;;;;;;;14.63;8.70;;;13.40;99.90;;;;;;5059776;28;20222;-73
2022/04/15 12:01:41;;;;;;;15.93;8.40;;;13.50;99.90;;;;;;5063042;28;20202;-73
2022/04/15 12:04:08;;;;;;;13.27;7.67;;;13.30;99.90;;;;;;5058686;28;20665;-73
2022/04/15 12:06:40;;;;;;;10.80;7.47;;;13.00;99.90;;;;;;5060421;28;20203;-74
2022/04/15 12:09:10;;;;;;;14.93;8.63;;;13.40;1.00;;;;;;5064766;28;20234;-74
2022/04/15 12:11:37;;;;;;;13.63;8.97;;;13.60;1.00;;;;;;5062074;28;20649;-74
2022/04/15 12:14:06;;;;;;;15.47;8.43;;;13.40;45.60;;;;;;5067220;28;20641;-74
2022/04/15 12:16:35;;;;;;;13.63;8.67;;;13.40;1.00;;;;;;5057036;28;20257;-74
2022/04/15 12:19:04;;;;;;;15.50;10.00;;;13.40;99.90;;;;;;5064869;28;20202;-74
2022/04/15 12:21:32;;;;;;;20.00;10.73;;;13.10;1.00;;;;;;5066817;28;20213;-74
2022/04/15 12:24:09;;;;;;;20.07;11.53;;;12.90;99.90;;;;;;5063786;28;20209;-74
2022/04/15 12:26:44;;;;;;;16.77;10.57;;;12.80;1.00;;;;;;5064437;28;20206;-73
2022/04/15 12:32:14;;;;;;;17.00;11.10;;;12.30;1.00;;;;;;5060843;28;20304;-73
2022/04/15 12:34:42;;;;;;;18.80;10.73;;;12.40;1.00;;;;;;5059010;28;20203;-73
2022/04/15 12:37:36;;;;;;;19.03;11.17;;;12.50;17.00;;;;;;5061276;28;20700;-73
2022/04/15 12:40:06;;;;;;;18.73;11.30;;;12.30;1.00;;;;;;5061431;28;20652;-73
2022/04/15 12:42:34;;;;;;;19.07;10.77;;;12.40;1.00;;;;;;5062274;28;20656;-73
2022/04/15 12:45:03;;;;;;;16.57;10.43;;;12.40;99.90;;;;;;5061079;28;20209;-73
2022/04/15 12:47:31;;;;;;;16.87;11.20;;;12.30;1.00;;;;;;5058231;28;20199;-73
2022/04/15 12:50:23;;;;;;;17.37;10.43;;;12.40;99.90;;;;;;5063740;28;20305;-73
2022/04/15 12:52:51;;;;;;;15.37;10.80;;;12.50;99.90;;;;;;5062427;28;20207;-73
2022/04/15 12:55:30;;;;;;;17.23;10.90;;;12.60;8.30;;;;;;5061020;28;20679;-73
2022/04/15 12:57:58;;;;;;;15.93;12.30;;;12.60;1.00;;;;;;5064903;28;20709;-73